INFORMACIÓN METAR y TAF
METAR FOR EGLC
ADDS - METARS form results

(0837 UTC 15 April 2021)
Data provider http://aviationweather.gov/metar/data/
 
METAR text: EGLC 150820Z AUTO 05010KT 020V080 9999 NCD 06/M00 Q1034
Conditions at: EGLC (LONDON CITY AIRP, GB) observed 0820 UTC 15 April 2021
Temperature: 6.0°C (43°F)
Dewpoint: 0.0°C (32°F) [RH = 65%]
Pressure (altimeter): 30.53 inches Hg (1034.0 mb)
Winds: from the NE (50 degrees) at 12 MPH (10 knots; 5.1 m/s)
Visibility: 6 or more miles (10+ km)
Ceiling: at least 12,000 feet AGL
Clouds: sky clear below 12,000 feet AGL
Weather: no significant weather observed at this time

METAR text: EGLC 150750Z AUTO 05005KT 300V110 9999 NCD 06/M00 Q1034
Conditions at: EGLC (LONDON CITY AIRP, GB) observed 0750 UTC 15 April 2021
Temperature: 6.0°C (43°F)
Dewpoint: 0.0°C (32°F) [RH = 65%]
Pressure (altimeter): 30.53 inches Hg (1034.0 mb)
Winds: from the NE (50 degrees) at 6 MPH (5 knots; 2.6 m/s)
Visibility: 6 or more miles (10+ km)
Ceiling: at least 12,000 feet AGL
Clouds: sky clear below 12,000 feet AGL
Weather: no significant weather observed at this time

Forecast for: EGLC (LONDON CITY AIRP, GB)
Text: TAF EGLC 150759Z 1509/1518 04006KT 9999 SCT045
Forecast period: 0900 to 1800 UTC 15 April 2021
Forecast type: FROM: standard forecast or significant change
Winds: from the NE (40 degrees) at 7 MPH (6 knots; 3.1 m/s)
Visibility: 6 or more miles (10+ km)
Ceiling: at least 12,000 feet AGL
Clouds: scattered clouds at 4500 feet AGL
Weather: no significant weather forecast for this period
Text: PROB30
Forecast period: 1100 to 1800 UTC 15 April 2021
Forecast type: TEMPORARY: The following changes expected for less than half the time period
Visibility: 5 miles (8 km)
Ceiling: 1400 feet AGL
Clouds: broken clouds at 1400 feet AGL
Weather: SHRA  (rain showers)

 MAPA DE AEROPUERTO

 INFORMACIÓN DE PISTA
Pista 10 Longitud 4948 ft Ancho 98 ft
Elevación 16 ft Umbral desplazado 358 ft Rumbo de pista 93
Pista 28 Longitud 4948 ft Ancho 98 ft
Elevación 19 ft Umbral desplazado 211 ft Rumbo de pista 273

 FRECUANCIAS DEL AEROPUERTO
Tipo APP Nombre APP Frecuencia 132.7 MHZ
Tipo ATIS Nombre ATIS Frecuencia 136.35 MHZ
Tipo GND Nombre GND Frecuencia 121.825 MHZ
Tipo TWR Nombre TWR Frecuencia 118.075 MHZ

 RADIO AYUDAS DEL AEROPUERTO
Tipo NDB Nombre City Frecuencia 322 KHZ



Powered by Virtual Airlines Manager [v2.6.2]